Terminal Aerodrome Forecast
Issued by NWS Wakefield, VA

Home | Current Version | Previous Version | Text Only | Print | Product List | Glossary On
Versions: 1 2 3 4 5 6 7 8 9 10 11 12 13 14 15 16 17 18 19 20 21 22 23 24 25 26
158
FTUS41 KAKQ 070552 RRA
TAFRIC
TAF
KRIC 070552Z 0706/0806 04004KT P6SM BKN150
     FM071600 03010G15KT P6SM OVC150
     FM080300 36009KT P6SM BKN250=

USA.gov is the U.S. government's official web portal to all federal, state and local government web resources and services.